sensor_id;sensor_type;location;lat;lon;timestamp;pressure;altitude;pressure_sealevel;temperature;humidity
55470;BME280;41334;47.872;16.384;2024-03-23T00:56:37;68747.22;;;-151.47;100.00
55470;BME280;41334;47.872;16.384;2024-03-23T01:01:38;68747.22;;;-151.47;100.00
55470;BME280;41334;47.872;16.384;2024-03-23T01:06:39;68747.22;;;-151.47;100.00
55470;BME280;41334;47.872;16.384;2024-03-23T01:11:40;68747.22;;;-151.47;100.00
55470;BME280;41334;47.872;16.384;2024-03-23T01:16:42;68747.22;;;-151.47;100.00
55470;BME280;41334;47.872;16.384;2024-03-23T01:21:43;68747.22;;;-151.47;100.00
55470;BME280;41334;47.872;16.384;2024-03-23T01:26:44;68747.22;;;-151.47;100.00
55470;BME280;41334;47.872;16.384;2024-03-23T01:31:44;68747.22;;;-151.47;100.00
55470;BME280;41334;47.872;16.384;2024-03-23T01:36:46;68747.22;;;-151.47;100.00
55470;BME280;41334;47.872;16.384;2024-03-23T01:41:47;68747.22;;;-151.47;100.00
55470;BME280;41334;47.872;16.384;2024-03-23T01:46:48;68747.22;;;-151.47;100.00
55470;BME280;41334;47.872;16.384;2024-03-23T01:51:50;68747.22;;;-151.47;100.00
55470;BME280;41334;47.872;16.384;2024-03-23T01:56:51;68747.22;;;-151.47;100.00
55470;BME280;41334;47.872;16.384;2024-03-23T02:01:52;68747.22;;;-151.47;100.00
55470;BME280;41334;47.872;16.384;2024-03-23T02:06:55;68747.22;;;-151.47;100.00
55470;BME280;41334;47.872;16.384;2024-03-23T02:11:57;68747.22;;;-151.47;100.00
55470;BME280;41334;47.872;16.384;2024-03-23T02:16:58;68747.22;;;-151.47;100.00
55470;BME280;41334;47.872;16.384;2024-03-23T02:22:00;68747.22;;;-151.47;100.00
55470;BME280;41334;47.872;16.384;2024-03-23T02:27:02;68747.22;;;-151.47;100.00
55470;BME280;41334;47.872;16.384;2024-03-23T02:32:03;68747.22;;;-151.47;100.00
55470;BME280;41334;47.872;16.384;2024-03-23T02:37:10;68747.22;;;-151.47;100.00
55470;BME280;41334;47.872;16.384;2024-03-23T02:42:13;68747.22;;;-151.47;100.00
55470;BME280;41334;47.872;16.384;2024-03-23T02:47:14;68747.22;;;-151.47;100.00
55470;BME280;41334;47.872;16.384;2024-03-23T02:52:15;68747.22;;;-151.47;100.00
55470;BME280;41334;47.872;16.384;2024-03-23T02:57:16;68747.22;;;-151.47;100.00
55470;BME280;41334;47.872;16.384;2024-03-23T03:02:17;68747.22;;;-151.47;100.00
55470;BME280;41334;47.872;16.384;2024-03-23T03:07:18;68747.22;;;-151.47;100.00
55470;BME280;41334;47.872;16.384;2024-03-23T03:17:56;68747.22;;;-151.47;100.00
55470;BME280;41334;47.872;16.384;2024-03-23T03:22:57;68747.22;;;-151.47;100.00
55470;BME280;41334;47.872;16.384;2024-03-23T03:27:58;68747.22;;;-151.47;100.00
55470;BME280;41334;47.872;16.384;2024-03-23T03:32:59;68747.22;;;-151.47;100.00
55470;BME280;41334;47.872;16.384;2024-03-23T03:38:00;68747.22;;;-151.47;100.00
55470;BME280;41334;47.872;16.384;2024-03-23T03:43:01;68747.22;;;-151.47;100.00
55470;BME280;41334;47.872;16.384;2024-03-23T03:48:02;68747.22;;;-151.47;100.00
55470;BME280;41334;47.872;16.384;2024-03-23T03:53:03;68747.22;;;-151.47;100.00
55470;BME280;41334;47.872;16.384;2024-03-23T03:58:04;68747.22;;;-151.47;100.00
55470;BME280;41334;47.872;16.384;2024-03-23T04:03:06;68747.22;;;-151.47;100.00
55470;BME280;41334;47.872;16.384;2024-03-23T04:08:07;68747.22;;;-151.47;100.00
55470;BME280;41334;47.872;16.384;2024-03-23T04:13:08;68747.22;;;-151.47;100.00
55470;BME280;41334;47.872;16.384;2024-03-23T04:18:09;68747.22;;;-151.47;100.00
55470;BME280;41334;47.872;16.384;2024-03-23T04:23:10;68747.22;;;-151.47;100.00
55470;BME280;41334;47.872;16.384;2024-03-23T04:28:11;68747.22;;;-151.47;100.00
55470;BME280;41334;47.872;16.384;2024-03-23T04:33:14;68747.22;;;-151.47;100.00
55470;BME280;41334;47.872;16.384;2024-03-23T04:38:15;68747.22;;;-151.47;100.00
55470;BME280;41334;47.872;16.384;2024-03-23T04:43:17;68747.22;;;-151.47;100.00
55470;BME280;41334;47.872;16.384;2024-03-23T04:48:22;68747.22;;;-151.47;100.00
55470;BME280;41334;47.872;16.384;2024-03-23T04:53:24;68747.22;;;-151.47;100.00
55470;BME280;41334;47.872;16.384;2024-03-23T04:58:29;68747.22;;;-151.47;100.00
55470;BME280;41334;47.872;16.384;2024-03-23T05:03:30;68747.22;;;-151.47;100.00
55470;BME280;41334;47.872;16.384;2024-03-23T05:08:31;68747.22;;;-151.47;100.00
55470;BME280;41334;47.872;16.384;2024-03-23T05:13:35;68747.22;;;-151.47;100.00
55470;BME280;41334;47.872;16.384;2024-03-23T05:18:36;68747.22;;;-151.47;100.00
55470;BME280;41334;47.872;16.384;2024-03-23T05:23:37;68747.22;;;-151.47;100.00
55470;BME280;41334;47.872;16.384;2024-03-23T05:28:39;68747.22;;;-151.47;100.00
55470;BME280;41334;47.872;16.384;2024-03-23T05:33:40;68747.22;;;-151.47;100.00
55470;BME280;41334;47.872;16.384;2024-03-23T05:38:41;68747.22;;;-151.47;100.00
55470;BME280;41334;47.872;16.384;2024-03-23T05:43:42;68747.22;;;-151.47;100.00
55470;BME280;41334;47.872;16.384;2024-03-23T05:48:45;68747.22;;;-151.47;100.00
55470;BME280;41334;47.872;16.384;2024-03-23T05:53:46;68747.22;;;-151.47;100.00
55470;BME280;41334;47.872;16.384;2024-03-23T05:58:47;68747.22;;;-151.47;100.00
55470;BME280;41334;47.872;16.384;2024-03-23T06:03:49;68747.22;;;-151.47;100.00
55470;BME280;41334;47.872;16.384;2024-03-23T06:08:50;68747.22;;;-151.47;100.00
55470;BME280;41334;47.872;16.384;2024-03-23T06:13:51;68747.22;;;-151.47;100.00
55470;BME280;41334;47.872;16.384;2024-03-23T06:18:52;68747.22;;;-151.47;100.00
55470;BME280;41334;47.872;16.384;2024-03-23T06:23:53;68747.22;;;-151.47;100.00
55470;BME280;41334;47.872;16.384;2024-03-23T06:28:54;68747.22;;;-151.47;100.00
55470;BME280;41334;47.872;16.384;2024-03-23T06:33:58;68747.22;;;-151.47;100.00
55470;BME280;41334;47.872;16.384;2024-03-23T06:38:59;68747.22;;;-151.47;100.00
55470;BME280;41334;47.872;16.384;2024-03-23T06:43:59;68747.22;;;-151.47;100.00
55470;BME280;41334;47.872;16.384;2024-03-23T06:49:00;68747.22;;;-151.47;100.00
55470;BME280;41334;47.872;16.384;2024-03-23T06:54:02;68747.22;;;-151.47;100.00
55470;BME280;41334;47.872;16.384;2024-03-23T06:59:04;68747.22;;;-151.47;100.00
55470;BME280;41334;47.872;16.384;2024-03-23T07:04:05;68747.22;;;-151.47;100.00
55470;BME280;41334;47.872;16.384;2024-03-23T07:09:06;68747.22;;;-151.47;100.00
55470;BME280;41334;47.872;16.384;2024-03-23T07:14:07;68747.22;;;-151.47;100.00
55470;BME280;41334;47.872;16.384;2024-03-23T07:19:08;68747.22;;;-151.47;100.00
55470;BME280;41334;47.872;16.384;2024-03-23T07:24:09;68747.22;;;-151.47;100.00
55470;BME280;41334;47.872;16.384;2024-03-23T07:29:11;68747.22;;;-151.47;100.00
55470;BME280;41334;47.872;16.384;2024-03-23T07:34:13;68747.22;;;-151.47;100.00
55470;BME280;41334;47.872;16.384;2024-03-23T07:39:14;68747.22;;;-151.47;100.00
55470;BME280;41334;47.872;16.384;2024-03-23T07:44:15;68747.22;;;-151.47;100.00
55470;BME280;41334;47.872;16.384;2024-03-23T07:49:16;68747.22;;;-151.47;100.00
55470;BME280;41334;47.872;16.384;2024-03-23T07:54:17;68747.22;;;-151.47;100.00
55470;BME280;41334;47.872;16.384;2024-03-23T07:59:18;68747.22;;;-151.47;100.00
55470;BME280;41334;47.872;16.384;2024-03-23T08:04:20;68747.22;;;-151.47;100.00
55470;BME280;41334;47.872;16.384;2024-03-23T08:09:22;68747.22;;;-151.47;100.00
55470;BME280;41334;47.872;16.384;2024-03-23T08:14:23;68747.22;;;-151.47;100.00
55470;BME280;41334;47.872;16.384;2024-03-23T08:19:24;68747.22;;;-151.47;100.00
55470;BME280;41334;47.872;16.384;2024-03-23T08:24:25;68747.22;;;-151.47;100.00
55470;BME280;41334;47.872;16.384;2024-03-23T08:29:26;68747.22;;;-151.47;100.00
55470;BME280;41334;47.872;16.384;2024-03-23T08:34:27;68747.22;;;-151.47;100.00
55470;BME280;41334;47.872;16.384;2024-03-23T08:39:28;68747.22;;;-151.47;100.00
55470;BME280;41334;47.872;16.384;2024-03-23T08:44:29;68747.22;;;-151.47;100.00
55470;BME280;41334;47.872;16.384;2024-03-23T08:49:30;68747.22;;;-151.47;100.00
55470;BME280;41334;47.872;16.384;2024-03-23T08:54:31;68747.22;;;-151.47;100.00
55470;BME280;41334;47.872;16.384;2024-03-23T08:59:31;68747.22;;;-151.47;100.00
55470;BME280;41334;47.872;16.384;2024-03-23T09:04:32;68747.22;;;-151.47;100.00
55470;BME280;41334;47.872;16.384;2024-03-23T09:09:33;68747.22;;;-151.47;100.00
55470;BME280;41334;47.872;16.384;2024-03-23T09:14:34;68747.22;;;-151.47;100.00
55470;BME280;41334;47.872;16.384;2024-03-23T09:19:35;68747.22;;;-151.47;100.00
55470;BME280;41334;47.872;16.384;2024-03-23T09:24:36;68747.22;;;-151.47;100.00
55470;BME280;41334;47.872;16.384;2024-03-23T09:29:37;68747.22;;;-151.47;100.00
55470;BME280;41334;47.872;16.384;2024-03-23T09:34:38;68747.22;;;-151.47;100.00
55470;BME280;41334;47.872;16.384;2024-03-23T09:39:40;68747.22;;;-151.47;100.00
55470;BME280;41334;47.872;16.384;2024-03-23T09:44:42;68747.22;;;-151.47;100.00
55470;BME280;41334;47.872;16.384;2024-03-23T09:49:44;68747.22;;;-151.47;100.00
55470;BME280;41334;47.872;16.384;2024-03-23T09:54:45;68747.22;;;-151.47;100.00
55470;BME280;41334;47.872;16.384;2024-03-23T09:59:46;68747.22;;;-151.47;100.00
55470;BME280;41334;47.872;16.384;2024-03-23T10:04:47;68747.22;;;-151.47;100.00
55470;BME280;41334;47.872;16.384;2024-03-23T10:09:49;68747.22;;;-151.47;100.00
55470;BME280;41334;47.872;16.384;2024-03-23T10:14:53;68747.22;;;-151.47;100.00
55470;BME280;41334;47.872;16.384;2024-03-23T10:19:56;68747.22;;;-151.47;100.00
55470;BME280;41334;47.872;16.384;2024-03-23T10:25:07;68747.22;;;-151.47;100.00
55470;BME280;41334;47.872;16.384;2024-03-23T10:30:13;68747.22;;;-151.47;100.00
55470;BME280;41334;47.872;16.384;2024-03-23T10:35:19;68747.22;;;-151.47;100.00
55470;BME280;41334;47.872;16.384;2024-03-23T10:40:23;68747.22;;;-151.47;100.00
55470;BME280;41334;47.872;16.384;2024-03-23T10:45:25;68747.22;;;-151.47;100.00
55470;BME280;41334;47.872;16.384;2024-03-23T10:50:27;68747.22;;;-151.47;100.00
55470;BME280;41334;47.872;16.384;2024-03-23T10:55:28;68747.22;;;-151.47;100.00
55470;BME280;41334;47.872;16.384;2024-03-23T11:00:31;97830.44;;;17.49;32.78
55470;BME280;41334;47.872;16.384;2024-03-23T11:05:32;97820.13;;;17.09;35.22
55470;BME280;41334;47.872;16.384;2024-03-23T11:10:33;97824.72;;;17.53;32.79
55470;BME280;41334;47.872;16.384;2024-03-23T11:15:36;97812.88;;;17.38;32.56
55470;BME280;41334;47.872;16.384;2024-03-23T11:20:37;97822.41;;;17.48;32.60
55470;BME280;41334;47.872;16.384;2024-03-23T11:25:39;97813.69;;;17.39;32.75
55470;BME280;41334;47.872;16.384;2024-03-23T11:30:40;97806.53;;;17.58;33.15
55470;BME280;41334;47.872;16.384;2024-03-23T11:35:41;97798.22;;;17.23;35.05
55470;BME280;41334;47.872;16.384;2024-03-23T11:40:44;97804.97;;;17.84;33.93
55470;BME280;41334;47.872;16.384;2024-03-23T11:45:52;97783.31;;;17.50;34.52
55470;BME280;41334;47.872;16.384;2024-03-23T11:50:57;97782.09;;;17.51;34.69
55470;BME280;41334;47.872;16.384;2024-03-23T11:55:59;97772.97;;;17.70;34.47
55470;BME280;41334;47.872;16.384;2024-03-23T12:01:02;97753.88;;;17.78;33.11
55470;BME280;41334;47.872;16.384;2024-03-23T12:06:04;97749.59;;;17.93;32.50
55470;BME280;41334;47.872;16.384;2024-03-23T12:16:17;97724.91;;;18.21;31.17
55470;BME280;41334;47.872;16.384;2024-03-23T12:21:18;97715.59;;;18.44;29.65
55470;BME280;41334;47.872;16.384;2024-03-23T12:26:19;97708.53;;;18.32;28.27
55470;BME280;41334;47.872;16.384;2024-03-23T12:31:20;97698.94;;;18.49;26.69
55470;BME280;41334;47.872;16.384;2024-03-23T12:36:21;97690.22;;;18.80;27.54
55470;BME280;41334;47.872;16.384;2024-03-23T12:53:01;97702.56;;;19.06;25.43
55470;BME280;41334;47.872;16.384;2024-03-23T12:58:02;97703.91;;;19.18;23.35
55470;BME280;41334;47.872;16.384;2024-03-23T13:03:03;97716.41;;;19.85;24.09
55470;BME280;41334;47.872;16.384;2024-03-23T13:08:05;97750.19;;;19.24;22.23
55470;BME280;41334;47.872;16.384;2024-03-23T13:13:06;97841.13;;;17.62;30.57
55470;BME280;41334;47.872;16.384;2024-03-23T13:18:08;97846.53;;;16.54;34.17
55470;BME280;41334;47.872;16.384;2024-03-23T13:23:09;97847.75;;;14.57;37.85
55470;BME280;41334;47.872;16.384;2024-03-23T13:28:10;97901.88;;;14.11;39.28
55470;BME280;41334;47.872;16.384;2024-03-23T13:33:12;97895.03;;;13.80;38.76
55470;BME280;41334;47.872;16.384;2024-03-23T13:38:13;97891.44;;;13.69;38.78
55470;BME280;41334;47.872;16.384;2024-03-23T13:43:14;97902.22;;;13.60;39.05
55470;BME280;41334;47.872;16.384;2024-03-23T13:48:20;97913.44;;;13.63;37.46
55470;BME280;41334;47.872;16.384;2024-03-23T13:53:21;97923.84;;;13.70;37.97
55470;BME280;41334;47.872;16.384;2024-03-23T13:58:24;97909.06;;;13.66;36.90
55470;BME280;41334;47.872;16.384;2024-03-23T14:03:28;97910.28;;;13.97;36.83
55470;BME280;41334;47.872;16.384;2024-03-23T14:08:30;97926.97;;;13.54;38.02
55470;BME280;41334;47.872;16.384;2024-03-23T14:13:34;97967.69;;;12.61;37.68
55470;BME280;41334;47.872;16.384;2024-03-23T14:18:35;97958.50;;;12.61;37.29
55470;BME280;41334;47.872;16.384;2024-03-23T14:23:36;97970.00;;;12.48;37.11
55470;BME280;41334;47.872;16.384;2024-03-23T14:28:37;97989.63;;;12.08;37.17
55470;BME280;41334;47.872;16.384;2024-03-23T14:33:38;98028.75;;;12.08;37.64
55470;BME280;41334;47.872;16.384;2024-03-23T14:38:42;98032.59;;;11.62;37.63
55470;BME280;41334;47.872;16.384;2024-03-23T14:43:43;98046.06;;;11.23;38.36
55470;BME280;41334;47.872;16.384;2024-03-23T14:48:45;98051.44;;;11.39;39.43
55470;BME280;41334;47.872;16.384;2024-03-23T14:53:46;98061.38;;;11.06;39.14
55470;BME280;41334;47.872;16.384;2024-03-23T14:58:52;98079.69;;;10.58;39.80
55470;BME280;41334;47.872;16.384;2024-03-23T15:03:53;98094.56;;;10.42;40.55
55470;BME280;41334;47.872;16.384;2024-03-23T15:08:54;98121.13;;;10.36;40.57
55470;BME280;41334;47.872;16.384;2024-03-23T15:13:55;98118.38;;;9.24;42.33
55470;BME280;41334;47.872;16.384;2024-03-23T15:18:59;98160.47;;;8.75;43.65
55470;BME280;41334;47.872;16.384;2024-03-23T15:24:01;98155.28;;;8.89;43.66
55470;BME280;41334;47.872;16.384;2024-03-23T15:29:02;98161.09;;;8.68;43.59
55470;BME280;41334;47.872;16.384;2024-03-23T15:34:03;98135.13;;;8.32;43.74
55470;BME280;41334;47.872;16.384;2024-03-23T15:39:05;98167.25;;;7.89;44.15
55470;BME280;41334;47.872;16.384;2024-03-23T15:44:07;98196.47;;;8.11;44.52
55470;BME280;41334;47.872;16.384;2024-03-23T15:49:08;98194.88;;;7.46;45.73
55470;BME280;41334;47.872;16.384;2024-03-23T15:54:09;98217.13;;;7.21;46.74
55470;BME280;41334;47.872;16.384;2024-03-23T15:59:10;98232.47;;;7.43;47.87
55470;BME280;41334;47.872;16.384;2024-03-23T16:04:12;98249.16;;;6.85;48.68
55470;BME280;41334;47.872;16.384;2024-03-23T16:09:13;98270.38;;;6.81;48.62
55470;BME280;41334;47.872;16.384;2024-03-23T16:14:14;98259.41;;;6.19;51.12
55470;BME280;41334;47.872;16.384;2024-03-23T16:19:15;98286.13;;;6.36;50.90
55470;BME280;41334;47.872;16.384;2024-03-23T16:24:17;98276.09;;;6.31;51.43
55470;BME280;41334;47.872;16.384;2024-03-23T16:29:18;98266.22;;;6.42;50.47
55470;BME280;41334;47.872;16.384;2024-03-23T16:34:19;98259.41;;;6.40;49.87
55470;BME280;41334;47.872;16.384;2024-03-23T16:39:20;98248.22;;;6.15;48.91
55470;BME280;41334;47.872;16.384;2024-03-23T16:44:21;98259.06;;;6.41;48.40
55470;BME280;41334;47.872;16.384;2024-03-23T16:49:23;98241.13;;;6.26;47.90
55470;BME280;41334;47.872;16.384;2024-03-23T16:54:24;98251.28;;;6.35;47.36
55470;BME280;41334;47.872;16.384;2024-03-23T16:59:25;98261.88;;;6.20;47.00
55470;BME280;41334;47.872;16.384;2024-03-23T17:04:26;98256.94;;;6.26;46.84
55470;BME280;41334;47.872;16.384;2024-03-23T17:09:27;98248.75;;;6.63;45.71
55470;BME280;41334;47.872;16.384;2024-03-23T17:14:28;98227.13;;;6.56;45.50
55470;BME280;41334;47.872;16.384;2024-03-23T17:19:29;98259.53;;;6.43;46.03
55470;BME280;41334;47.872;16.384;2024-03-23T17:24:31;98270.75;;;6.47;45.18
55470;BME280;41334;47.872;16.384;2024-03-23T17:29:32;98280.19;;;6.46;44.61
55470;BME280;41334;47.872;16.384;2024-03-23T17:34:33;98278.22;;;6.46;44.81
55470;BME280;41334;47.872;16.384;2024-03-23T17:39:35;98284.53;;;6.35;44.92
55470;BME280;41334;47.872;16.384;2024-03-23T17:44:39;98285.75;;;6.25;45.47
55470;BME280;41334;47.872;16.384;2024-03-23T17:49:40;98301.94;;;6.35;44.98
55470;BME280;41334;47.872;16.384;2024-03-23T17:54:41;98299.66;;;6.37;44.99
55470;BME280;41334;47.872;16.384;2024-03-23T17:59:42;98307.28;;;6.19;45.39
55470;BME280;41334;47.872;16.384;2024-03-23T18:04:46;98289.41;;;5.96;46.32
55470;BME280;41334;47.872;16.384;2024-03-23T18:09:48;98294.28;;;6.20;45.03
55470;BME280;41334;47.872;16.384;2024-03-23T18:14:49;98296.22;;;6.19;44.74
55470;BME280;41334;47.872;16.384;2024-03-23T18:19:50;98295.75;;;6.38;45.08
55470;BME280;41334;47.872;16.384;2024-03-23T18:24:51;98298.47;;;6.26;44.87
55470;BME280;41334;47.872;16.384;2024-03-23T18:29:54;98302.59;;;6.20;45.05
55470;BME280;41334;47.872;16.384;2024-03-23T18:34:55;98285.78;;;6.04;44.92
55470;BME280;41334;47.872;16.384;2024-03-23T18:39:56;98298.50;;;6.17;45.52
55470;BME280;41334;47.872;16.384;2024-03-23T18:44:57;98299.81;;;5.99;46.96
55470;BME280;41334;47.872;16.384;2024-03-23T18:49:58;98286.16;;;5.64;47.96
55470;BME280;41334;47.872;16.384;2024-03-23T18:55:00;98294.06;;;5.74;48.33
55470;BME280;41334;47.872;16.384;2024-03-23T19:00:01;98299.06;;;5.81;47.81
55470;BME280;41334;47.872;16.384;2024-03-23T19:05:02;98291.09;;;5.88;48.05
55470;BME280;41334;47.872;16.384;2024-03-23T19:10:03;98288.06;;;5.72;48.19
55470;BME280;41334;47.872;16.384;2024-03-23T19:15:07;98293.84;;;5.88;47.46
55470;BME280;41334;47.872;16.384;2024-03-23T19:20:10;98309.03;;;6.03;46.50
55470;BME280;41334;47.872;16.384;2024-03-23T19:25:11;98315.53;;;6.07;46.54
55470;BME280;41334;47.872;16.384;2024-03-23T19:30:12;98322.56;;;6.04;46.31
55470;BME280;41334;47.872;16.384;2024-03-23T19:35:13;98317.41;;;5.94;46.03
55470;BME280;41334;47.872;16.384;2024-03-23T19:40:15;98294.66;;;5.89;45.12
55470;BME280;41334;47.872;16.384;2024-03-23T19:45:16;98278.97;;;5.72;45.34
55470;BME280;41334;47.872;16.384;2024-03-23T19:50:17;98286.09;;;5.43;44.56
55470;BME280;41334;47.872;16.384;2024-03-23T19:55:20;98292.41;;;5.52;44.83
55470;BME280;41334;47.872;16.384;2024-03-23T20:00:22;98291.47;;;5.40;45.98
55470;BME280;41334;47.872;16.384;2024-03-23T20:05:23;98279.25;;;5.49;46.73
55470;BME280;41334;47.872;16.384;2024-03-23T20:10:24;98272.19;;;5.31;47.82
55470;BME280;41334;47.872;16.384;2024-03-23T20:15:25;98311.34;;;5.42;47.78
55470;BME280;41334;47.872;16.384;2024-03-23T20:20:26;98337.56;;;5.36;48.06
55470;BME280;41334;47.872;16.384;2024-03-23T20:25:27;98336.22;;;5.42;47.89
55470;BME280;41334;47.872;16.384;2024-03-23T20:30:28;98353.00;;;5.66;46.87
55470;BME280;41334;47.872;16.384;2024-03-23T20:35:29;98355.78;;;5.66;46.32
55470;BME280;41334;47.872;16.384;2024-03-23T20:40:30;98354.75;;;5.41;45.82
55470;BME280;41334;47.872;16.384;2024-03-23T20:45:31;98365.59;;;5.55;44.70
55470;BME280;41334;47.872;16.384;2024-03-23T20:50:32;98380.75;;;5.49;43.92
55470;BME280;41334;47.872;16.384;2024-03-23T20:55:36;98396.44;;;5.27;42.74
55470;BME280;41334;47.872;16.384;2024-03-23T21:00:40;98392.97;;;5.39;41.74
55470;BME280;41334;47.872;16.384;2024-03-23T21:05:42;98377.44;;;5.55;41.71
55470;BME280;41334;47.872;16.384;2024-03-23T21:10:53;98404.00;;;5.48;40.99
55470;BME280;41334;47.872;16.384;2024-03-23T21:15:54;98404.16;;;5.51;40.95
55470;BME280;41334;47.872;16.384;2024-03-23T21:21:01;98387.75;;;5.46;39.94
55470;BME280;41334;47.872;16.384;2024-03-23T21:26:04;98374.41;;;5.48;39.77
55470;BME280;41334;47.872;16.384;2024-03-23T21:31:05;98338.53;;;5.31;40.41
55470;BME280;41334;47.872;16.384;2024-03-23T21:36:07;98309.47;;;5.16;41.42
55470;BME280;41334;47.872;16.384;2024-03-23T21:41:07;98325.41;;;5.19;42.16
55470;BME280;41334;47.872;16.384;2024-03-23T21:46:08;98291.75;;;5.17;42.64
55470;BME280;41334;47.872;16.384;2024-03-23T21:51:10;98277.72;;;4.93;43.94
55470;BME280;41334;47.872;16.384;2024-03-23T21:56:11;98301.91;;;4.96;43.80
55470;BME280;41334;47.872;16.384;2024-03-23T22:01:12;98281.00;;;4.78;44.52
55470;BME280;41334;47.872;16.384;2024-03-23T22:06:13;98273.94;;;4.51;44.74
55470;BME280;41334;47.872;16.384;2024-03-23T22:11:14;98284.16;;;4.50;45.10
55470;BME280;41334;47.872;16.384;2024-03-23T22:16:16;98286.56;;;4.17;45.96
55470;BME280;41334;47.872;16.384;2024-03-23T22:21:17;98292.25;;;4.20;45.51
55470;BME280;41334;47.872;16.384;2024-03-23T22:26:20;98286.59;;;4.08;45.19
55470;BME280;41334;47.872;16.384;2024-03-23T22:31:21;98292.56;;;3.93;45.47
55470;BME280;41334;47.872;16.384;2024-03-23T22:36:22;98276.19;;;3.88;45.71
55470;BME280;41334;47.872;16.384;2024-03-23T22:41:23;98283.59;;;3.61;46.02
55470;BME280;41334;47.872;16.384;2024-03-23T22:46:24;98265.59;;;3.64;45.91
55470;BME280;41334;47.872;16.384;2024-03-23T22:51:25;98215.00;;;3.51;46.30
55470;BME280;41334;47.872;16.384;2024-03-23T22:56:26;98180.16;;;3.38;46.68
55470;BME280;41334;47.872;16.384;2024-03-23T23:01:27;98250.97;;;3.46;45.99
55470;BME280;41334;47.872;16.384;2024-03-23T23:06:28;98297.06;;;3.63;45.58
55470;BME280;41334;47.872;16.384;2024-03-23T23:11:29;98282.00;;;3.60;45.39
55470;BME280;41334;47.872;16.384;2024-03-23T23:16:30;98290.09;;;3.57;45.35
55470;BME280;41334;47.872;16.384;2024-03-23T23:21:32;98265.28;;;3.48;45.77
55470;BME280;41334;47.872;16.384;2024-03-23T23:26:33;98264.06;;;3.32;46.46
55470;BME280;41334;47.872;16.384;2024-03-23T23:31:34;98254.03;;;3.27;46.83
55470;BME280;41334;47.872;16.384;2024-03-23T23:36:35;98249.16;;;3.24;47.43
55470;BME280;41334;47.872;16.384;2024-03-23T23:41:36;98254.47;;;3.12;47.87
55470;BME280;41334;47.872;16.384;2024-03-23T23:46:37;98245.41;;;3.20;47.62
55470;BME280;41334;47.872;16.384;2024-03-23T23:51:39;98242.66;;;3.20;47.45
55470;BME280;41334;47.872;16.384;2024-03-23T23:56:40;98246.88;;;3.17;47.60
